Time;durP1;ratioP1;P1;durP2;ratioP2;P2;SDS_P1;SDS_P2;PMS_P1;PMS_P2;Temp;Humidity;BMP_temperature;BMP_pressure;BME280_temperature;BME280_humidity;BME280_pressure;Samples;Min_cycle;Max_cycle;Signal;HPM_P1;HPM_P2
2021/05/10 00:01:12;;;;;;;11.43;4.78;;;308.00;1920.00;;;;;;5048835;28;20021;-67
2021/05/10 00:03:38;;;;;;;10.90;4.88;;;308.00;1920.00;;;;;;5049532;28;20044;-67
2021/05/10 00:06:05;;;;;;;7.32;3.90;;;307.90;1945.60;;;;;;5051796;28;20020;-67
2021/05/10 00:08:30;;;;;;;11.73;4.57;;;308.00;1920.00;;;;;;5049681;28;20484;-68
2021/05/10 00:10:57;;;;;;;7.97;3.60;;;307.90;1920.00;;;;;;5048617;28;20511;-65
2021/05/10 00:13:23;;;;;;;9.85;4.07;;;307.90;1945.60;;;;;;5049005;28;20375;-65
2021/05/10 00:15:49;;;;;;;8.32;3.85;;;307.80;1971.20;;;;;;5042808;28;20029;-65
2021/05/10 00:18:16;;;;;;;14.73;5.72;;;307.70;1971.20;;;;;;5034206;28;20033;-66
2021/05/10 00:20:44;;;;;;;16.00;6.70;;;307.60;1996.80;;;;;;5034403;28;20388;-65
2021/05/10 00:23:11;;;;;;;16.65;6.38;;;307.70;1996.80;;;;;;5034269;28;20026;-67
2021/05/10 00:25:38;;;;;;;14.35;5.85;;;307.60;1996.80;;;;;;5034033;28;20028;-67
2021/05/10 00:28:05;;;;;;;16.10;6.28;;;307.60;2022.40;;;;;;5033907;28;20070;-66
2021/05/10 00:30:32;;;;;;;17.42;6.00;;;307.60;2048.00;;;;;;5033996;28;20049;-70
2021/05/10 00:32:58;;;;;;;16.73;6.30;;;307.60;2048.00;;;;;;5033908;28;20522;-70
2021/05/10 00:35:24;;;;;;;17.85;7.07;;;307.60;2048.00;;;;;;5033981;28;20502;-74
2021/05/10 00:37:51;;;;;;;13.60;6.53;;;307.50;2048.00;;;;;;5033796;28;20025;-67
2021/05/10 00:40:20;;;;;;;15.23;6.88;;;307.50;2073.60;;;;;;5033606;28;20407;-67
2021/05/10 00:42:46;;;;;;;12.50;6.40;;;307.50;2073.60;;;;;;5034005;28;20075;-66
2021/05/10 00:45:12;;;;;;;14.43;6.18;;;307.50;2073.60;;;;;;5032423;28;20029;-67
2021/05/10 00:47:39;;;;;;;15.95;7.50;;;307.40;2099.20;;;;;;5033874;28;20067;-67
2021/05/10 00:50:06;;;;;;;13.88;6.38;;;307.40;2099.20;;;;;;5033928;28;20033;-67
2021/05/10 00:52:32;;;;;;;14.30;6.30;;;307.40;2124.80;;;;;;5033646;28;20021;-68
2021/05/10 00:54:58;;;;;;;14.35;6.18;;;307.40;2124.80;;;;;;5033843;28;20017;-67
2021/05/10 00:57:25;;;;;;;11.60;5.50;;;307.40;2124.80;;;;;;5033969;28;20022;-68
2021/05/10 00:59:52;;;;;;;11.77;5.22;;;307.40;2124.80;;;;;;5033627;28;20365;-66
2021/05/10 01:02:19;;;;;;;11.93;5.43;;;307.30;2124.80;;;;;;5034062;28;20034;-66
2021/05/10 01:04:45;;;;;;;11.50;5.30;;;307.30;2150.40;;;;;;5033531;28;20037;-67
2021/05/10 01:07:12;;;;;;;12.65;5.82;;;307.30;2150.40;;;;;;5033559;28;20049;-65
2021/05/10 01:09:39;;;;;;;15.20;7.10;;;307.30;2176.00;;;;;;5033629;28;20029;-66
2021/05/10 01:12:05;;;;;;;14.90;7.30;;;307.20;2176.00;;;;;;5033742;28;20048;-67
2021/05/10 01:14:34;;;;;;;12.48;5.75;;;307.20;2201.60;;;;;;5033702;28;20029;-67
2021/05/10 01:17:00;;;;;;;16.20;8.02;;;282.50;2150.40;;;;;;5033967;28;20017;-76
2021/05/10 01:19:27;;;;;;;6.55;3.78;;;282.50;2176.00;;;;;;5033240;28;20437;-77
2021/05/10 01:21:57;;;;;;;9.82;4.95;;;282.50;2124.80;;;;;;5033500;28;20101;-64
2021/05/10 01:24:23;;;;;;;11.63;5.72;;;282.50;2150.40;;;;;;5032108;28;20025;-66
2021/05/10 01:26:49;;;;;;;10.60;6.10;;;282.50;2176.00;;;;;;5033423;28;20541;-67
2021/05/10 01:29:15;;;;;;;11.45;5.95;;;282.50;2176.00;;;;;;5033280;28;20034;-67
2021/05/10 01:31:41;;;;;;;7.30;4.50;;;282.50;2176.00;;;;;;5033179;28;20026;-66
2021/05/10 01:34:06;;;;;;;10.40;5.55;;;282.40;2176.00;;;;;;5033401;28;20025;-66
2021/05/10 01:36:32;;;;;;;10.60;5.05;;;282.50;2201.60;;;;;;5033217;28;20450;-67
2021/05/10 01:38:58;;;;;;;9.85;5.20;;;282.40;2227.20;;;;;;5033275;28;20026;-68
2021/05/10 01:41:24;;;;;;;8.15;4.75;;;282.40;2227.20;;;;;;5032927;28;20143;-66
2021/05/10 01:43:50;;;;;;;12.15;4.47;;;282.40;2227.20;;;;;;5033157;28;20037;-66
2021/05/10 01:46:15;;;;;;;8.07;4.10;;;282.40;2227.20;;;;;;5033100;28;20048;-66
2021/05/10 01:48:41;;;;;;;7.18;3.63;;;282.40;2227.20;;;;;;5032880;28;20028;-67
2021/05/10 01:51:07;;;;;;;6.07;3.60;;;282.30;2252.80;;;;;;5032970;28;20435;-67
2021/05/10 01:53:33;;;;;;;7.20;4.03;;;282.30;2252.80;;;;;;5031890;28;20021;-66
2021/05/10 01:55:59;;;;;;;8.85;3.80;;;282.30;2252.80;;;;;;5042570;28;20045;-72
2021/05/10 01:58:25;;;;;;;13.55;6.55;;;282.30;2252.80;;;;;;5052700;28;20017;-66
2021/05/10 02:00:51;;;;;;;14.70;6.30;;;282.20;2278.40;;;;;;5052600;28;20028;-71
2021/05/10 02:03:18;;;;;;;12.15;5.72;;;282.20;2252.80;;;;;;5052941;28;20021;-70
2021/05/10 02:05:45;;;;;;;15.25;6.68;;;282.20;2252.80;;;;;;5052619;28;20112;-71
2021/05/10 02:08:12;;;;;;;12.82;6.35;;;282.20;2252.80;;;;;;5052462;28;20021;-72
2021/05/10 02:10:41;;;;;;;7.72;4.28;;;282.20;2278.40;;;;;;5052612;28;20391;-71
2021/05/10 02:13:20;;;;;;;9.05;4.20;;;282.20;2278.40;;;;;;5052248;28;20082;-76
2021/05/10 02:15:54;;;;;;;8.45;3.70;;;282.20;2278.40;;;;;;5052496;28;20096;-71
2021/05/10 02:18:23;;;;;;;6.50;3.40;;;282.20;2278.40;;;;;;5051079;28;20364;-70
2021/05/10 02:20:50;;;;;;;8.98;3.40;;;282.20;2278.40;;;;;;5052368;28;20036;-68
2021/05/10 02:23:18;;;;;;;6.35;3.08;;;282.20;2278.40;;;;;;5052460;28;20021;-75
2021/05/10 02:25:47;;;;;;;5.22;2.80;;;282.20;2278.40;;;;;;5052336;28;20036;-78
2021/05/10 02:28:16;;;;;;;6.65;3.15;;;282.20;2278.40;;;;;;5052187;28;20556;-77
2021/05/10 02:30:43;;;;;;;6.32;3.53;;;282.10;2278.40;;;;;;5051835;28;20524;-75
2021/05/10 02:33:11;;;;;;;10.57;4.93;;;282.10;2278.40;;;;;;5052252;28;20040;-71
2021/05/10 02:35:37;;;;;;;10.52;5.88;;;282.10;2278.40;;;;;;5051960;28;20018;-67
2021/05/10 02:38:03;;;;;;;12.85;5.25;;;282.10;2278.40;;;;;;5052299;28;20025;-67
2021/05/10 02:40:30;;;;;;;9.80;5.10;;;282.00;2278.40;;;;;;5051835;28;20045;-71
2021/05/10 02:42:55;;;;;;;8.80;4.10;;;282.00;2278.40;;;;;;5052066;28;20056;-71
2021/05/10 02:45:22;;;;;;;7.68;3.80;;;282.00;2278.40;;;;;;5052010;28;20053;-71
2021/05/10 02:47:49;;;;;;;7.80;3.95;;;282.00;2278.40;;;;;;5051723;28;20040;-68
2021/05/10 02:50:21;;;;;;;8.55;3.90;;;282.00;2278.40;;;;;;5052034;28;20111;-67
2021/05/10 02:52:51;;;;;;;8.35;3.90;;;281.90;2278.40;;;;;;5052114;28;20078;-67
2021/05/10 02:55:18;;;;;;;8.43;4.28;;;281.90;2278.40;;;;;;5052135;28;20479;-67
2021/05/10 02:57:45;;;;;;;9.20;4.90;;;281.90;2278.40;;;;;;5051766;28;20472;-66
2021/05/10 03:00:13;;;;;;;10.35;5.22;;;281.90;2278.40;;;;;;5052020;28;20480;-67
2021/05/10 03:02:39;;;;;;;7.32;4.50;;;281.90;2278.40;;;;;;5051818;28;20458;-72
2021/05/10 03:05:07;;;;;;;8.00;3.83;;;281.90;2278.40;;;;;;5054897;28;20053;-71
2021/05/10 03:07:33;;;;;;;7.15;3.80;;;281.80;2278.40;;;;;;5055949;28;20075;-70
2021/05/10 03:09:59;;;;;;;6.32;3.60;;;281.80;2278.40;;;;;;5056319;28;20021;-66
2021/05/10 03:12:25;;;;;;;5.20;3.15;;;281.80;2278.40;;;;;;5056127;28;20040;-66
2021/05/10 03:14:50;;;;;;;4.65;3.00;;;281.70;2278.40;;;;;;5056398;28;20017;-67
2021/05/10 03:17:16;;;;;;;6.70;2.75;;;281.70;2278.40;;;;;;5056773;28;20146;-71
2021/05/10 03:19:42;;;;;;;5.70;2.78;;;281.70;2278.40;;;;;;5056265;28;20021;-71
2021/05/10 03:22:07;;;;;;;5.40;2.78;;;281.80;2278.40;;;;;;5056227;28;20403;-70
2021/05/10 03:24:33;;;;;;;5.47;2.80;;;281.80;2278.40;;;;;;5056044;28;20045;-66
2021/05/10 03:26:59;;;;;;;5.03;3.28;;;281.80;2278.40;;;;;;5055459;28;20052;-65
2021/05/10 03:29:24;;;;;;;4.50;2.80;;;281.80;2278.40;;;;;;5055539;28;20435;-65
2021/05/10 03:31:50;;;;;;;4.65;2.80;;;281.70;2278.40;;;;;;5055373;28;20040;-67
2021/05/10 03:34:16;;;;;;;6.75;3.00;;;281.70;2278.40;;;;;;5055460;28;20032;-65
2021/05/10 03:36:42;;;;;;;5.93;2.80;;;281.70;2278.40;;;;;;5055546;28;20056;-67
2021/05/10 03:39:07;;;;;;;4.63;2.60;;;281.70;2278.40;;;;;;5055503;28;20107;-66
2021/05/10 03:41:33;;;;;;;6.47;2.78;;;281.70;2278.40;;;;;;5055206;28;20056;-66
2021/05/10 03:43:59;;;;;;;7.47;2.90;;;281.80;2278.40;;;;;;5055389;28;20429;-66
2021/05/10 03:46:25;;;;;;;4.95;2.67;;;281.80;2278.40;;;;;;5055140;28;20502;-68
2021/05/10 03:48:51;;;;;;;8.05;3.60;;;281.90;2278.40;;;;;;5042035;28;20491;-66
2021/05/10 03:51:17;;;;;;;6.60;3.42;;;281.90;2278.40;;;;;;5034874;28;20022;-67
2021/05/10 03:53:43;;;;;;;9.25;3.90;;;282.00;2278.40;;;;;;5035052;28;20036;-67
2021/05/10 03:56:10;;;;;;;6.47;3.42;;;282.00;2278.40;;;;;;5035325;28;20151;-67
2021/05/10 03:58:39;;;;;;;7.57;3.33;;;282.10;2278.40;;;;;;5034902;28;20026;-68
2021/05/10 04:01:05;;;;;;;5.82;2.83;;;282.10;2278.40;;;;;;5035067;28;20017;-65
2021/05/10 04:03:38;;;;;;;5.45;3.22;;;282.20;2278.40;;;;;;5042885;28;20100;-66
2021/05/10 04:16:14;;;;;;;6.47;3.30;;;307.40;2304.00;;;;;;5053716;28;20013;-66
2021/05/10 04:18:42;;;;;;;10.00;3.40;;;307.50;2304.00;;;;;;5054633;28;20069;-66
2021/05/10 04:21:08;;;;;;;6.28;3.10;;;307.70;2304.00;;;;;;5054628;28;20027;-64
2021/05/10 04:23:34;;;;;;;7.32;3.35;;;307.80;2304.00;;;;;;5053250;28;20103;-66
2021/05/10 04:26:00;;;;;;;6.70;3.50;;;307.90;2304.00;;;;;;5054502;28;20083;-71
2021/05/10 04:28:25;;;;;;;7.65;3.20;;;308.00;2304.00;;;;;;5054302;28;20021;-72
2021/05/10 04:30:52;;;;;;;6.60;3.53;;;308.10;2304.00;;;;;;5050848;28;20690;-73
2021/05/10 04:33:32;;;;;;;7.43;3.47;;;332.90;2329.60;;;;;;5049210;28;20064;-72
2021/05/10 04:35:58;;;;;;;4.97;3.28;;;333.00;2304.00;;;;;;5054321;28;20092;-72
2021/05/10 04:38:25;;;;;;;6.85;3.38;;;333.10;2278.40;;;;;;5054111;28;20522;-72
2021/05/10 04:40:52;;;;;;;7.40;3.65;;;333.20;2278.40;;;;;;5054193;28;20049;-70
2021/05/10 04:43:18;;;;;;;5.45;3.47;;;333.40;2278.40;;;;;;5054403;28;20033;-66
2021/05/10 04:45:44;;;;;;;6.15;3.40;;;333.50;2252.80;;;;;;5054104;28;20103;-66
2021/05/10 04:48:10;;;;;;;8.02;3.25;;;333.70;2252.80;;;;;;5054222;28;20447;-67
2021/05/10 04:50:35;;;;;;;5.40;2.85;;;358.40;2227.20;;;;;;5054310;28;20049;-67
2021/05/10 04:53:01;;;;;;;6.25;2.90;;;358.50;2227.20;;;;;;5053997;28;20368;-70
2021/05/10 04:55:27;;;;;;;6.20;3.20;;;358.70;2201.60;;;;;;5054053;28;20468;-72
2021/05/10 04:57:53;;;;;;;6.97;4.30;;;358.70;2201.60;;;;;;5053965;28;20543;-71
2021/05/10 05:00:19;;;;;;;6.57;3.55;;;358.80;2201.60;;;;;;5051704;28;20025;-71
2021/05/10 05:02:46;;;;;;;4.47;3.00;;;359.00;2176.00;;;;;;5035422;28;20039;-72
2021/05/10 05:05:12;;;;;;;5.40;3.08;;;359.20;2176.00;;;;;;5054002;28;20029;-71
2021/05/10 05:07:42;;;;;;;5.53;2.83;;;384.00;2150.40;;;;;;5053824;28;20037;-71
2021/05/10 05:10:09;;;;;;;7.60;3.17;;;384.30;2124.80;;;;;;5026183;28;20029;-71
2021/05/10 05:12:37;;;;;;;4.57;2.88;;;384.90;2099.20;;;;;;5053676;28;20021;-67
2021/05/10 05:15:05;;;;;;;6.88;4.05;;;410.20;2048.00;;;;;;5053667;28;20078;-66
2021/05/10 05:17:31;;;;;;;5.65;3.83;;;435.40;1996.80;;;;;;5053414;28;20025;-66
2021/05/10 05:19:57;;;;;;;10.68;6.20;;;435.70;1945.60;;;;;;5052650;28;20064;-66
2021/05/10 05:22:22;;;;;;;8.68;2.92;;;461.10;1894.40;;;;;;5033760;28;20085;-66
2021/05/10 05:24:48;;;;;;;7.45;4.22;;;461.30;1817.60;;;;;;5033043;28;20070;-64
2021/05/10 05:27:13;;;;;;;8.00;3.13;;;461.60;1792.00;;;;;;5050291;28;20509;-65
2021/05/10 05:29:39;;;;;;;6.45;3.40;;;486.90;1740.80;;;;;;5040581;28;20108;-66
2021/05/10 05:32:05;;;;;;;7.28;3.80;;;512.20;1664.00;;;;;;5046031;28;20479;-66
2021/05/10 05:34:31;;;;;;;5.85;3.83;;;512.30;1638.40;;;;;;5039583;28;20171;-65
2021/05/10 05:36:57;;;;;;;6.82;3.97;;;512.40;1612.80;;;;;;5042062;28;20528;-67
2021/05/10 05:39:22;;;;;;;7.03;3.58;;;512.60;1561.60;;;;;;5052456;28;20028;-66
2021/05/10 05:41:48;;;;;;;7.50;4.00;;;512.60;1561.60;;;;;;5048622;28;20188;-67
2021/05/10 05:44:14;;;;;;;8.93;3.92;;;512.60;1561.60;;;;;;5048669;28;20398;-65
2021/05/10 05:46:44;;;;;;;6.85;3.60;;;537.60;1561.60;;;;;;5050359;28;20033;-68
2021/05/10 05:49:09;;;;;;;6.07;3.17;;;538.00;1536.00;;;;;;5048851;28;20048;-67
2021/05/10 05:51:36;;;;;;;7.63;3.38;;;538.40;1510.40;;;;;;5050543;28;20534;-67
2021/05/10 05:54:02;;;;;;;5.63;3.28;;;563.50;1510.40;;;;;;5043344;28;20022;-67
2021/05/10 05:56:27;;;;;;;5.18;3.10;;;563.50;1484.80;;;;;;5050367;28;20070;-67
2021/05/10 05:58:53;;;;;;;6.45;3.22;;;563.60;1484.80;;;;;;5049392;28;20099;-70
2021/05/10 06:01:20;;;;;;;4.53;3.20;;;563.70;1484.80;;;;;;5049436;28;20032;-67
2021/05/10 06:03:46;;;;;;;5.40;3.25;;;563.90;1459.20;;;;;;5045515;28;20024;-67
2021/05/10 06:06:12;;;;;;;5.90;3.28;;;563.80;1459.20;;;;;;5036418;28;20559;-71
2021/05/10 06:08:38;;;;;;;4.82;3.25;;;589.00;1433.60;;;;;;5037170;28;20071;-67
2021/05/10 06:11:06;;;;;;;6.00;3.13;;;588.90;1408.00;;;;;;5050197;28;20025;-68
2021/05/10 06:13:33;;;;;;;5.90;3.15;;;588.90;1433.60;;;;;;5043055;28;20075;-65
2021/05/10 06:15:59;;;;;;;7.00;3.60;;;589.00;1408.00;;;;;;5050092;28;20053;-64
2021/05/10 06:18:25;;;;;;;6.68;3.70;;;589.00;1408.00;;;;;;5046639;28;20064;-68
2021/05/10 06:20:51;;;;;;;7.15;3.78;;;589.40;1408.00;;;;;;5049647;28;20071;-65
2021/05/10 06:23:17;;;;;;;7.28;3.53;;;589.60;1382.40;;;;;;5036073;28;20115;-66
2021/05/10 06:25:42;;;;;;;6.28;4.00;;;589.30;1382.40;;;;;;5049345;28;20113;-71
2021/05/10 06:28:08;;;;;;;11.13;5.97;;;589.60;1382.40;;;;;;5048776;28;20536;-70
2021/05/10 06:30:34;;;;;;;16.63;7.82;;;589.70;1382.40;;;;;;5048281;28;20090;-71
2021/05/10 06:32:59;;;;;;;22.73;10.45;;;589.70;1382.40;;;;;;5045179;28;20148;-65
2021/05/10 06:35:25;;;;;;;9.77;4.65;;;640.00;1331.20;;;;;;5045726;28;20059;-69
2021/05/10 06:37:51;;;;;;;6.68;3.42;;;640.10;1305.60;;;;;;5049825;28;20021;-69
2021/05/10 06:40:17;;;;;;;8.68;4.28;;;640.70;1280.00;;;;;;5047094;28;20037;-64
2021/05/10 06:42:42;;;;;;;23.63;12.70;;;640.10;1305.60;;;;;;5032094;28;20041;-65
2021/05/10 06:45:09;;;;;;;7.70;4.47;;;640.30;1280.00;;;;;;5032030;28;20068;-65
2021/05/10 06:47:37;;;;;;;8.02;3.22;;;640.50;1280.00;;;;;;5031489;28;20079;-66
2021/05/10 06:50:03;;;;;;;6.13;3.10;;;615.30;1280.00;;;;;;5032046;28;20060;-65
2021/05/10 06:52:29;;;;;;;4.50;2.95;;;615.30;1305.60;;;;;;5031726;28;20095;-65
2021/05/10 06:54:55;;;;;;;6.43;3.40;;;640.50;1254.40;;;;;;5032221;28;20104;-65
2021/05/10 06:57:20;;;;;;;4.82;2.90;;;640.30;1305.60;;;;;;5031659;28;20037;-66
2021/05/10 06:59:46;;;;;;;5.05;3.08;;;615.30;1280.00;;;;;;5038449;28;20025;-66
2021/05/10 07:02:12;;;;;;;6.38;3.08;;;640.50;1280.00;;;;;;5047553;28;20029;-66
2021/05/10 07:04:38;;;;;;;4.57;2.92;;;640.00;1228.80;;;;;;5042577;28;20496;-70
2021/05/10 07:07:04;;;;;;;3.60;2.60;;;640.30;1228.80;;;;;;5042551;28;20033;-66
2021/05/10 07:09:30;;;;;;;5.70;3.00;;;615.30;1228.80;;;;;;5031575;28;20022;-67
2021/05/10 07:11:55;;;;;;;5.13;2.80;;;640.10;1228.80;;;;;;5033240;28;20029;-69
2021/05/10 07:14:22;;;;;;;5.10;2.90;;;640.20;1203.20;;;;;;5047277;28;20369;-69
2021/05/10 07:16:47;;;;;;;3.58;2.78;;;615.30;1228.80;;;;;;5047987;28;20031;-66
2021/05/10 07:19:14;;;;;;;4.70;3.10;;;614.90;1228.80;;;;;;5048221;28;20092;-67
2021/05/10 07:21:40;;;;;;;4.80;3.15;;;614.50;1280.00;;;;;;5045202;28;20036;-67
2021/05/10 07:24:06;;;;;;;5.32;3.22;;;589.70;1305.60;;;;;;5049481;28;20017;-66
2021/05/10 07:26:32;;;;;;;4.60;2.92;;;589.70;1305.60;;;;;;5035636;28;20028;-67
2021/05/10 07:28:58;;;;;;;4.78;2.80;;;589.10;1331.20;;;;;;5035609;28;20486;-68
2021/05/10 07:31:24;;;;;;;4.25;2.58;;;589.00;1331.20;;;;;;5041656;28;20021;-67
2021/05/10 07:33:51;;;;;;;4.40;2.70;;;589.00;1356.80;;;;;;5042909;28;20487;-68
2021/05/10 07:36:17;;;;;;;6.97;3.03;;;589.10;1331.20;;;;;;5030557;28;20037;-72
2021/05/10 07:38:42;;;;;;;6.18;3.30;;;589.00;1356.80;;;;;;5031533;28;20071;-73
2021/05/10 07:41:08;;;;;;;4.43;2.80;;;588.90;1382.40;;;;;;5031419;28;20518;-67
2021/05/10 07:43:34;;;;;;;4.30;2.92;;;589.00;1356.80;;;;;;5031529;28;20136;-67
2021/05/10 07:45:59;;;;;;;4.97;2.88;;;588.80;1382.40;;;;;;5031463;28;20105;-68
2021/05/10 07:48:25;;;;;;;5.05;3.15;;;588.80;1382.40;;;;;;5031606;28;20067;-67
2021/05/10 07:50:51;;;;;;;4.00;2.72;;;564.10;1408.00;;;;;;5032235;28;20109;-68
2021/05/10 07:53:17;;;;;;;4.75;3.00;;;588.80;1356.80;;;;;;5035033;28;20064;-67
2021/05/10 07:55:43;;;;;;;5.45;2.90;;;564.10;1382.40;;;;;;5034984;28;20542;-67
2021/05/10 07:58:08;;;;;;;4.10;2.90;;;588.80;1356.80;;;;;;5035047;28;20037;-67
2021/05/10 08:00:37;;;;;;;4.47;2.80;;;589.00;1356.80;;;;;;5035124;28;20033;-70
2021/05/10 08:03:07;;;;;;;5.10;2.92;;;589.00;1382.40;;;;;;5038586;28;20033;-69
2021/05/10 08:05:34;;;;;;;3.80;2.83;;;588.80;1382.40;;;;;;5054966;28;20513;-67
2021/05/10 08:08:00;;;;;;;4.05;2.80;;;564.10;1408.00;;;;;;5054626;28;20025;-67
2021/05/10 08:10:25;;;;;;;5.22;2.80;;;589.00;1382.40;;;;;;5054972;28;20429;-67
2021/05/10 08:12:51;;;;;;;3.70;2.75;;;588.90;1382.40;;;;;;5054767;28;20037;-67
2021/05/10 08:15:17;;;;;;;5.97;2.88;;;589.10;1356.80;;;;;;5053806;28;20456;-67
2021/05/10 08:17:42;;;;;;;4.60;2.90;;;589.00;1382.40;;;;;;5054628;28;20033;-67
2021/05/10 08:20:09;;;;;;;4.38;3.00;;;588.80;1408.00;;;;;;5054417;28;20028;-67
2021/05/10 08:22:35;;;;;;;5.82;2.92;;;589.00;1408.00;;;;;;5054907;28;20040;-67
2021/05/10 08:25:01;;;;;;;4.30;2.88;;;589.10;1382.40;;;;;;5054368;28;20395;-67
2021/05/10 08:27:26;;;;;;;4.68;2.88;;;589.40;1382.40;;;;;;5054605;28;20021;-68
2021/05/10 08:29:52;;;;;;;7.05;3.35;;;589.30;1382.40;;;;;;5054254;28;20070;-67
2021/05/10 08:32:18;;;;;;;4.88;3.30;;;589.10;1408.00;;;;;;5054511;28;20090;-67
2021/05/10 08:34:43;;;;;;;4.25;2.90;;;589.10;1433.60;;;;;;5054456;28;20052;-68
2021/05/10 08:37:09;;;;;;;6.22;3.38;;;589.40;1382.40;;;;;;5054280;28;20031;-67
2021/05/10 08:39:35;;;;;;;6.82;3.35;;;589.40;1382.40;;;;;;5054252;28;20136;-66
2021/05/10 08:42:01;;;;;;;6.00;3.00;;;589.70;1408.00;;;;;;5053892;28;20055;-66
2021/05/10 08:44:27;;;;;;;5.63;2.83;;;614.40;1356.80;;;;;;5054584;28;20028;-69
2021/05/10 08:46:53;;;;;;;4.82;3.13;;;589.70;1356.80;;;;;;5053927;28;20479;-72
2021/05/10 08:49:22;;;;;;;4.60;2.90;;;589.70;1382.40;;;;;;5054089;28;20028;-67
2021/05/10 08:51:48;;;;;;;5.25;2.90;;;614.40;1356.80;;;;;;5053843;28;20055;-68
2021/05/10 08:54:17;;;;;;;5.60;3.15;;;614.60;1382.40;;;;;;5053875;28;20021;-66
2021/05/10 08:56:43;;;;;;;6.03;3.20;;;614.70;1356.80;;;;;;5053951;28;20025;-67
2021/05/10 08:59:09;;;;;;;5.47;3.40;;;614.50;1356.80;;;;;;5054087;28;20044;-67
2021/05/10 09:01:48;;;;;;;4.93;3.17;;;614.60;1356.80;;;;;;5053903;28;20460;-67
2021/05/10 09:04:15;;;;;;;4.13;3.13;;;614.70;1356.80;;;;;;5052467;28;20021;-67
2021/05/10 09:06:41;;;;;;;3.90;3.10;;;614.80;1356.80;;;;;;5053912;28;20032;-68
2021/05/10 09:09:09;;;;;;;5.32;3.17;;;614.80;1331.20;;;;;;5044435;28;20026;-67
2021/05/10 09:11:52;;;;;;;4.40;2.80;;;614.90;1356.80;;;;;;5049983;28;20029;-67
2021/05/10 09:14:33;;;;;;;4.20;3.00;;;615.20;1331.20;;;;;;5051554;28;20636;-67
2021/05/10 09:16:59;;;;;;;6.60;3.08;;;615.10;1331.20;;;;;;5024952;28;20112;-67
2021/05/10 09:19:48;;;;;;;4.93;3.08;;;615.20;1305.60;;;;;;5033499;28;20045;-67
2021/05/10 09:22:14;;;;;;;4.85;3.33;;;615.20;1331.20;;;;;;5026327;28;20075;-67
2021/05/10 09:24:48;;;;;;;4.28;2.78;;;615.30;1331.20;;;;;;5032308;28;20045;-71
2021/05/10 09:27:25;;;;;;;4.97;3.28;;;615.10;1305.60;;;;;;5044337;28;20029;-78
2021/05/10 09:30:10;;;;;;;4.10;2.85;;;615.10;1331.20;;;;;;5032378;28;20033;-74
2021/05/10 09:32:36;;;;;;;4.63;2.92;;;615.30;1331.20;;;;;;5030444;28;20051;-78
2021/05/10 09:35:22;;;;;;;4.68;3.00;;;640.20;1305.60;;;;;;5032850;28;20025;-78
2021/05/10 09:37:56;;;;;;;7.80;3.17;;;640.00;1280.00;;;;;;5037830;28;20027;-79
2021/05/10 09:40:23;;;;;;;4.20;3.10;;;640.00;1305.60;;;;;;5050007;28;20554;-79
2021/05/10 09:42:51;;;;;;;4.60;3.10;;;640.20;1305.60;;;;;;5049416;28;20029;-77
2021/05/10 09:45:32;;;;;;;4.82;2.80;;;640.40;1305.60;;;;;;5040615;28;20124;-79
2021/05/10 09:48:03;;;;;;;;;;;640.50;1280.00;;;;;;5049990;28;20060;-78
2021/05/10 09:50:54;;;;;;;6.70;3.47;;;640.70;1280.00;;;;;;5049936;28;19904;-78
2021/05/10 09:53:47;;;;;;;5.30;3.03;;;640.20;1305.60;;;;;;5050711;28;20041;-78
2021/05/10 09:56:29;;;;;;;5.20;2.70;;;640.40;1280.00;;;;;;5050777;28;20090;-78
2021/05/10 09:59:00;;;;;;;4.25;2.90;;;640.20;1305.60;;;;;;5047584;28;20017;-68
2021/05/10 10:01:38;;;;;;;4.97;2.83;;;640.50;1280.00;;;;;;5039074;28;20475;-66
2021/05/10 10:04:04;;;;;;;6.25;3.33;;;640.30;1254.40;;;;;;5040202;28;20360;-67
2021/05/10 10:06:29;;;;;;;5.50;3.10;;;640.50;1280.00;;;;;;5034952;28;20032;-66
2021/05/10 10:08:56;;;;;;;4.93;2.90;;;640.40;1280.00;;;;;;5050011;28;20083;-67
2021/05/10 10:11:24;;;;;;;3.95;2.70;;;640.50;1228.80;;;;;;5047787;28;20551;-67
2021/05/10 10:13:52;;;;;;;5.30;2.90;;;640.40;1254.40;;;;;;5050393;28;20021;-66
2021/05/10 10:16:22;;;;;;;3.97;2.70;;;640.40;1280.00;;;;;;5048585;28;20045;-66
2021/05/10 10:18:51;;;;;;;6.75;3.20;;;640.50;1254.40;;;;;;5047951;28;20025;-66
2021/05/10 10:21:19;;;;;;;5.95;3.10;;;640.50;1280.00;;;;;;5045990;28;20027;-76
2021/05/10 10:23:52;;;;;;;4.07;2.83;;;640.60;1254.40;;;;;;5044319;28;20105;-71
2021/05/10 10:26:18;;;;;;;3.92;2.63;;;640.70;1254.40;;;;;;5050377;28;20535;-66
2021/05/10 10:28:46;;;;;;;4.88;2.60;;;640.60;1228.80;;;;;;5039126;28;20471;-66
2021/05/10 10:31:24;;;;;;;6.00;2.90;;;640.50;1254.40;;;;;;5043495;28;20016;-66
2021/05/10 10:34:01;;;;;;;6.28;2.85;;;640.60;1254.40;;;;;;5047441;28;20100;-66
2021/05/10 10:36:32;;;;;;;3.95;2.80;;;640.80;1254.40;;;;;;5050338;28;20103;-66
2021/05/10 10:39:25;;;;;;;4.13;2.78;;;640.80;1228.80;;;;;;5037661;28;20513;-65
2021/05/10 10:41:58;;;;;;;7.05;3.00;;;640.60;1254.40;;;;;;5042768;28;20076;-66
2021/05/10 10:44:29;;;;;;;4.95;2.60;;;640.90;1254.40;;;;;;5044913;28;20052;-66
2021/05/10 10:46:55;;;;;;;;;;;640.70;1228.80;;;;;;5043790;28;20017;-66
2021/05/10 10:49:29;;;;;;;6.93;2.70;;;640.60;1228.80;;;;;;5050141;28;19909;-66
2021/05/10 10:51:55;;;;;;;6.10;2.78;;;640.70;1254.40;;;;;;5048523;28;20479;-66
2021/05/10 10:54:23;;;;;;;3.55;2.50;;;640.70;1254.40;;;;;;5044276;28;20079;-66
2021/05/10 10:56:58;;;;;;;3.90;2.38;;;640.70;1228.80;;;;;;5040278;28;20108;-65
2021/05/10 10:59:40;;;;;;;5.53;2.80;;;640.60;1254.40;;;;;;5039388;28;20021;-65
2021/05/10 11:02:21;;;;;;;4.78;2.60;;;640.70;1254.40;;;;;;5048905;28;20033;-67
2021/05/10 11:05:05;;;;;;;;;;;640.70;1254.40;;;;;;5044073;28;20075;-67
2021/05/10 11:07:58;;;;;;;6.45;3.35;;;640.70;1254.40;;;;;;5024832;28;20278;-66
2021/05/10 11:10:48;;;;;;;5.95;2.72;;;640.80;1254.40;;;;;;5035693;28;20029;-66
2021/05/10 11:13:29;;;;;;;;;;;665.60;1280.00;;;;;;5034735;28;20057;-65
2021/05/10 11:16:01;;;;;;;5.82;2.97;;;665.70;1280.00;;;;;;5050850;28;19912;-65
2021/05/10 11:18:47;;;;;;;3.97;2.65;;;665.60;1254.40;;;;;;5046511;28;20060;-66
2021/05/10 11:21:22;;;;;;;5.05;2.60;;;665.70;1280.00;;;;;;5031425;28;20053;-66
2021/05/10 11:23:50;;;;;;;5.88;3.00;;;665.70;1280.00;;;;;;5023618;28;20029;-67
2021/05/10 11:26:43;;;;;;;4.85;2.90;;;665.60;1254.40;;;;;;5034749;28;20071;-68
2021/05/10 11:29:11;;;;;;;4.60;2.70;;;640.90;1254.40;;;;;;5036730;28;20031;-78
2021/05/10 11:31:39;;;;;;;4.00;2.70;;;640.90;1254.40;;;;;;5050851;28;20467;-78
2021/05/10 11:34:09;;;;;;;4.65;2.70;;;640.90;1254.40;;;;;;5054152;28;20026;-75
2021/05/10 11:36:36;;;;;;;;;;;640.80;1254.40;;;;;;5054530;28;20017;-73
2021/05/10 11:39:15;;;;;;;4.03;2.60;;;665.60;1305.60;;;;;;5054312;28;19912;-78
2021/05/10 11:41:45;;;;;;;5.50;2.90;;;665.60;1280.00;;;;;;5054111;28;20167;-77
2021/05/10 11:44:25;;;;;;;6.45;2.65;;;665.60;1280.00;;;;;;5047454;28;20029;-77
2021/05/10 11:46:55;;;;;;;6.38;2.90;;;640.90;1228.80;;;;;;5051613;28;20379;-72
2021/05/10 11:49:38;;;;;;;3.85;2.53;;;640.90;1254.40;;;;;;5051705;28;20025;-66
2021/05/10 11:52:13;;;;;;;4.47;2.72;;;640.80;1254.40;;;;;;5051403;28;20070;-67
2021/05/10 11:54:46;;;;;;;5.80;2.70;;;640.70;1254.40;;;;;;5053236;28;20387;-68
2021/05/10 11:57:19;;;;;;;5.70;2.80;;;640.90;1254.40;;;;;;5049266;28;20018;-76
2021/05/10 11:59:49;;;;;;;4.57;2.63;;;640.90;1254.40;;;;;;5035052;28;20090;-79
2021/05/10 12:02:18;;;;;;;5.18;2.90;;;640.80;1254.40;;;;;;5033617;28;20022;-79
2021/05/10 12:04:49;;;;;;;3.88;2.88;;;640.80;1254.40;;;;;;5048355;28;20029;-66
2021/05/10 12:07:16;;;;;;;6.05;2.80;;;640.90;1254.40;;;;;;5035301;28;20036;-67
2021/05/10 12:09:49;;;;;;;5.95;2.72;;;640.90;1254.40;;;;;;5048184;28;20048;-72
2021/05/10 12:12:18;;;;;;;4.95;2.70;;;665.60;1280.00;;;;;;5053356;28;20029;-72
2021/05/10 12:14:46;;;;;;;4.25;2.65;;;640.80;1254.40;;;;;;5053281;28;20111;-72
2021/05/10 12:17:26;;;;;;;4.25;2.60;;;640.80;1254.40;;;;;;5054262;28;20029;-67
2021/05/10 12:20:01;;;;;;;;;;;640.80;1254.40;;;;;;5050109;28;20027;-66
2021/05/10 12:22:40;;;;;;;5.80;2.75;;;665.70;1280.00;;;;;;5052167;28;19905;-67
2021/05/10 12:25:21;;;;;;;5.45;2.50;;;665.70;1280.00;;;;;;5051288;28;20036;-68
2021/05/10 12:28:17;;;;;;;5.75;2.70;;;665.60;1280.00;;;;;;5053080;28;20472;-68
2021/05/10 12:30:49;;;;;;;5.22;2.63;;;665.70;1280.00;;;;;;5053352;28;20033;-68
2021/05/10 12:33:26;;;;;;;5.22;2.97;;;665.70;1254.40;;;;;;5053331;28;20032;-68
2021/05/10 12:35:55;;;;;;;4.50;2.92;;;665.70;1254.40;;;;;;5051269;28;20727;-68